Flight Track Log - Related Links

Times and Time Zones

All times are in EST time to prevent confusion due to time zone crossing. See the EJM826 flight status page for this flight to view local times or setup timezone preferences in your user account.

Time Position Orientation Groundspeed Altitude Reporting Facility
EST Latitude Longitude Course Direction KTS MPH feet Rate Location/Type
Sun 11:29:19 AM 29.6603 -95.2619 46° Northeast 156 180 800  Level Houston Center
Sun 11:30:21 AM 29.6961 -95.2192 46° Northeast 198 228 1,900 595 Climbing Houston Center
Sun 11:31:20 AM 29.7286 -95.1808 46° Northeast 197 227 2,000 98 Climbing Houston Center
Sun 11:31:22 AM 29.7378 -95.1708 43° Northeast 209 241 2,000 -97 Level Houston Center
Sun 11:32:22 AM 29.7769 -95.1222 47° Northeast 205 236 1,900 -98 Descending Houston Center
Sun 11:32:23 AM 29.7775 -95.1225 337° Northwest 198 228 1,900 97 Level Houston Center
Sun 11:33:24 AM 29.8147 -95.0761 47° Northeast 202 232 2,000 97 Climbing Houston Center
Sun 11:33:25 AM 29.8150 -95.0747 77° East 200 230 2,000 -194 Level Houston Center
Sun 11:34:26 AM 29.8542 -95.0372 40° Northeast 189 217 1,800 -148 Descending Houston Center
Sun 11:35:27 AM 29.9056 -95.0322 North 186 214 1,700 -97 Descending Houston Center
Sun 11:35:28 AM 29.9028 -95.0319 175° South 186 214 1,700 197 Level Houston Center
Sun 11:36:28 AM 29.9475 -95.0775 319° Northwest 200 230 1,900 194 Climbing Houston Center
Sun 11:36:30 AM 29.9433 -95.0703 124° Southeast 189 217 1,900  Level Houston Center
Sun 11:37:29 AM 29.9756 -95.1297 302° West 198 228 1,900  Level Houston Center
Sun 11:37:32 AM 29.9736 -95.1228 108° East 200 230 1,900 -214 Level Houston Center
Sun 11:38:25 AM 29.9764 -95.1850 273° West 184 212 1,700 -190 Descending Houston Center
Sun 11:38:35 AM 29.9761 -95.1939 268° West 190 219 1,700 -583 Level Houston Center
Sun 11:39:37 AM 29.9772 -95.2503 271° West 184 212 1,000 -750 Descending Houston Center
Sun 11:40:27 AM 29.9781 -95.2933 271° West 143 165 300 -774 Descending Houston Center
Sun 11:40:39 AM 29.9769 -95.2997 259° West 172 198 200 -500 Descending Houston Center

Login

Don't have an account? Register now (free) for customized features, flight alerts, and more!